Time;durP1;ratioP1;P1;durP2;ratioP2;P2;SDS_P1;SDS_P2;PMS_P1;PMS_P2;Temp;Humidity;BMP_temperature;BMP_pressure;BME280_temperature;BME280_humidity;BME280_pressure;Samples;Min_cycle;Max_cycle;Signal;HPM_P1;HPM_P2
2021/07/26 00:01:55;;;;;;;10.57;7.33;;;;;;;22.98;59.99;99791.69;6247894;28;20044;-75
2021/07/26 00:04:55;;;;;;;12.10;7.87;;;;;;;22.99;59.88;99800.47;6247924;28;20068;-75
2021/07/26 00:07:56;;;;;;;13.10;7.43;;;;;;;23.00;59.95;99799.47;6230305;28;20048;-75
2021/07/26 00:11:03;;;;;;;14.13;7.83;;;;;;;22.99;60.33;99795.97;6229374;28;20071;-74
2021/07/26 00:14:04;;;;;;;12.57;7.97;;;;;;;22.93;61.59;99786.88;6246601;28;20286;-74
2021/07/26 00:17:05;;;;;;;9.60;7.75;;;;;;;22.80;62.07;99799.16;6246727;28;20422;-74
2021/07/26 00:20:06;;;;;;;12.27;8.30;;;;;;;22.70;63.53;99796.75;6230181;28;20057;-75
2021/07/26 00:23:07;;;;;;;10.82;7.40;;;;;;;22.54;63.81;99801.16;6247535;28;20045;-74
2021/07/26 00:26:08;;;;;;;14.90;8.27;;;;;;;22.49;64.16;99802.72;6247390;28;20037;-75
2021/07/26 00:29:09;;;;;;;12.57;8.18;;;;;;;22.45;64.45;99812.06;6247202;28;20045;-75
2021/07/26 00:32:10;;;;;;;15.07;8.63;;;;;;;22.36;64.65;99802.47;6246180;28;20121;-74
2021/07/26 00:35:11;;;;;;;11.63;8.43;;;;;;;22.33;65.38;99804.47;6246127;28;20087;-74
2021/07/26 00:38:11;;;;;;;9.87;8.17;;;;;;;22.31;64.94;99806.47;6248177;28;20049;-74
2021/07/26 00:41:12;;;;;;;13.67;8.73;;;;;;;22.30;65.16;99804.00;6246238;28;20068;-74
2021/07/26 00:44:15;;;;;;;14.80;8.63;;;;;;;22.22;65.10;99802.19;6245623;28;20484;-74
2021/07/26 00:47:16;;;;;;;11.07;8.18;;;;;;;22.19;65.71;99804.38;6246819;28;20069;-73
2021/07/26 00:50:17;;;;;;;9.83;8.00;;;;;;;22.19;66.17;99812.34;6245630;28;20041;-74
2021/07/26 00:53:17;;;;;;;10.70;8.43;;;;;;;22.14;66.27;99815.53;6246708;28;20037;-74
2021/07/26 00:56:18;;;;;;;13.13;8.70;;;;;;;22.13;66.26;99806.72;6245606;28;20046;-74
2021/07/26 00:59:19;;;;;;;17.45;9.35;;;;;;;22.10;66.31;99808.91;6246740;28;20054;-75
2021/07/26 01:02:20;;;;;;;11.02;9.55;;;;;;;22.14;66.13;99812.88;6229328;28;20064;-75
2021/07/26 01:05:21;;;;;;;13.90;9.60;;;;;;;22.09;66.28;99812.53;6245304;28;20037;-74
2021/07/26 01:08:21;;;;;;;11.53;8.83;;;;;;;22.11;65.98;99808.75;6228981;28;20100;-74
2021/07/26 01:11:23;;;;;;;11.33;8.83;;;;;;;22.09;66.16;99807.22;6246530;28;20535;-74
2021/07/26 01:14:24;;;;;;;13.27;8.93;;;;;;;22.07;66.26;99802.13;6212341;28;20049;-74
2021/07/26 01:17:28;;;;;;;10.27;8.30;;;;;;;22.06;66.41;99797.78;6246388;28;20057;-74
2021/07/26 01:20:29;;;;;;;13.00;8.63;;;;;;;22.05;66.40;99797.97;6246372;28;20373;-74
2021/07/26 01:23:32;;;;;;;11.23;8.53;;;;;;;22.05;66.12;99806.78;6228220;28;20048;-74
2021/07/26 01:26:33;;;;;;;10.30;8.00;;;;;;;22.07;65.97;99802.13;6246282;28;20575;-75
2021/07/26 01:29:34;;;;;;;10.25;8.15;;;;;;;22.03;66.72;99799.97;6244936;28;20536;-74
2021/07/26 01:32:35;;;;;;;11.40;8.60;;;;;;;22.00;66.87;99802.97;6245179;28;20037;-75
2021/07/26 01:35:37;;;;;;;12.07;8.43;;;;;;;21.94;67.04;99807.97;6247081;28;20043;-74
2021/07/26 01:38:39;;;;;;;11.00;8.85;;;;;;;21.94;67.79;99821.25;6246143;28;20124;-74
2021/07/26 01:41:40;;;;;;;10.35;8.40;;;;;;;21.88;67.73;99818.47;6245637;28;20052;-74
2021/07/26 01:44:41;;;;;;;13.20;9.27;;;;;;;21.84;68.56;99823.28;6246003;28;20045;-74
2021/07/26 01:47:50;;;;;;;10.00;8.30;;;;;;;21.80;67.87;99814.00;6244928;28;20488;-74
2021/07/26 01:50:57;;;;;;;12.20;8.23;;;;;;;21.69;68.94;99807.25;6244774;28;20045;-74
2021/07/26 01:53:58;;;;;;;12.65;8.68;;;;;;;21.66;69.55;99812.91;6244863;28;20048;-74
2021/07/26 01:57:00;;;;;;;12.30;8.90;;;;;;;21.59;70.25;99806.63;6244806;28;20069;-74
2021/07/26 02:00:01;;;;;;;12.25;8.93;;;;;;;21.57;70.69;99808.63;6244500;28;20061;-75
2021/07/26 02:03:03;;;;;;;12.07;8.27;;;;;;;21.47;71.50;99807.97;6244896;28;20127;-75
2021/07/26 02:06:03;;;;;;;14.18;9.35;;;;;;;21.44;71.84;99806.50;6245955;28;20041;-75
2021/07/26 02:09:04;;;;;;;18.90;9.23;;;;;;;21.34;73.04;99808.50;6213307;28;20037;-74
2021/07/26 02:12:05;;;;;;;12.27;9.03;;;;;;;21.35;72.71;99802.16;6245766;28;20400;-75
2021/07/26 02:15:07;;;;;;;14.85;9.23;;;;;;;21.27;73.23;99797.72;6244455;28;20042;-74
2021/07/26 02:18:08;;;;;;;11.93;8.93;;;;;;;21.21;73.92;99797.56;6244573;28;20041;-74
2021/07/26 02:21:09;;;;;;;10.63;8.97;;;;;;;21.16;73.84;99797.25;6244745;28;20080;-75
2021/07/26 02:24:09;;;;;;;10.10;8.90;;;;;;;21.11;74.42;99793.28;6246237;28;20041;-75
2021/07/26 02:27:10;;;;;;;10.57;8.87;;;;;;;21.09;74.43;99791.78;6246421;28;20484;-74
2021/07/26 02:30:12;;;;;;;14.23;9.47;;;;;;;21.05;74.93;99793.13;6246359;28;20072;-74
2021/07/26 02:33:13;;;;;;;;;;;;;;;21.00;75.47;99801.59;6245052;28;20420;-74
2021/07/26 02:36:14;;;;;;;10.70;8.05;;;;;;;21.02;75.55;99804.06;6232265;28;19921;-74
2021/07/26 02:39:14;;;;;;;14.43;10.00;;;;;;;20.94;75.92;99804.91;6215978;28;20046;-74
2021/07/26 02:42:15;;;;;;;10.77;8.37;;;;;;;20.99;76.10;99809.72;6248735;28;20049;-74
2021/07/26 02:45:16;;;;;;;12.57;9.30;;;;;;;20.95;76.29;99798.59;6249626;28;20052;-74
2021/07/26 02:48:17;;;;;;;13.00;9.13;;;;;;;20.84;77.02;99791.81;6250004;28;20389;-74
2021/07/26 02:51:17;;;;;;;12.73;9.57;;;;;;;20.80;77.45;99797.63;6248467;28;20037;-74
2021/07/26 02:54:18;;;;;;;11.60;9.37;;;;;;;20.75;77.95;99797.28;6249566;28;20120;-75
2021/07/26 02:57:19;;;;;;;11.53;8.77;;;;;;;20.70;78.50;99797.78;6248269;28;20041;-74
2021/07/26 03:00:20;;;;;;;14.00;9.80;;;;;;;20.64;78.92;99793.13;6249406;28;20412;-74
2021/07/26 03:03:20;;;;;;;11.80;9.30;;;;;;;20.58;79.29;99794.63;6249482;28;20109;-74
2021/07/26 03:06:21;;;;;;;11.87;9.27;;;;;;;20.58;79.21;99797.28;6248456;28;20427;-74
2021/07/26 03:09:22;;;;;;;12.67;9.70;;;;;;;20.57;79.52;99802.69;6248083;28;20083;-73
2021/07/26 03:12:23;;;;;;;15.57;9.53;;;;;;;20.55;79.62;99800.22;6247785;28;20042;-74
2021/07/26 03:15:24;;;;;;;15.47;9.40;;;;;;;20.56;79.77;99809.00;6247842;28;20049;-74
2021/07/26 03:18:24;;;;;;;19.60;9.90;;;;;;;20.50;80.16;99813.13;6231319;28;20057;-74
2021/07/26 03:21:25;;;;;;;13.17;9.70;;;;;;;20.48;80.54;99823.88;6215240;28;20104;-74
2021/07/26 03:24:26;;;;;;;13.07;9.20;;;;;;;20.46;80.68;99817.09;6247501;28;20132;-74
2021/07/26 03:27:26;;;;;;;14.73;9.50;;;;;;;20.44;81.19;99825.19;6231078;28;20038;-74
2021/07/26 03:30:27;;;;;;;13.27;10.30;;;;;;;20.45;81.88;99821.56;6231183;28;20053;-75
2021/07/26 03:33:28;;;;;;;15.30;10.13;;;;;;;20.42;81.90;99826.38;6248409;28;20045;-74
2021/07/26 03:36:28;;;;;;;20.67;10.13;;;;;;;20.34;82.29;99827.16;6230820;28;20127;-74
2021/07/26 03:39:29;;;;;;;12.67;9.37;;;;;;;20.34;82.22;99829.81;6230793;28;20049;-74
2021/07/26 03:42:33;;;;;;;15.63;9.90;;;;;;;20.28;82.94;99831.31;6248442;28;20041;-74
2021/07/26 03:45:33;;;;;;;16.25;10.52;;;;;;;20.27;83.06;99831.47;6247978;28;20092;-74
2021/07/26 03:48:34;;;;;;;14.83;10.53;;;;;;;20.33;82.58;99841.41;6247081;28;20041;-74
2021/07/26 03:51:35;;;;;;;19.63;10.00;;;;;;;20.32;82.60;99842.41;6230609;28;20047;-74
2021/07/26 03:54:35;;;;;;;18.73;10.33;;;;;;;20.34;82.77;99837.78;6246790;28;20060;-74
2021/07/26 03:57:36;;;;;;;15.30;10.70;;;;;;;20.25;83.69;99849.34;6246842;28;20569;-74
2021/07/26 04:00:37;;;;;;;14.70;10.47;;;;;;;20.31;83.18;99862.78;6230208;28;20058;-74
2021/07/26 04:03:37;;;;;;;15.03;10.20;;;;;;;20.40;82.74;99860.16;6246700;28;20041;-74
2021/07/26 04:06:42;;;;;;;16.20;10.37;;;;;;;20.47;82.42;99874.41;6247862;28;20128;-74
2021/07/26 04:09:47;;;;;;;14.15;10.40;;;;;;;20.50;82.86;99860.84;6246589;28;20045;-74
2021/07/26 04:12:51;;;;;;;13.00;10.05;;;;;;;20.52;83.42;99866.81;6247806;28;20484;-74
2021/07/26 04:15:52;;;;;;;12.07;10.57;;;;;;;20.67;82.08;99867.00;6246348;28;20041;-74
2021/07/26 04:18:53;;;;;;;13.90;9.57;;;;;;;20.77;82.46;99867.69;6247219;28;20411;-74
2021/07/26 04:21:57;;;;;;;13.33;9.93;;;;;;;20.87;81.20;99872.84;6213817;28;20503;-75
2021/07/26 04:24:58;;;;;;;16.10;9.57;;;;;;;20.98;80.83;99882.28;6247979;28;20065;-74
2021/07/26 04:27:59;;;;;;;12.73;9.70;;;;;;;21.05;80.14;99876.16;6247511;28;20048;-74
2021/07/26 04:31:00;;;;;;;17.17;9.40;;;;;;;21.13;79.86;99883.31;6247020;28;20041;-74
2021/07/26 04:34:00;;;;;;;17.40;9.30;;;;;;;21.20;79.23;99894.06;6247914;28;20103;-75
2021/07/26 04:37:01;;;;;;;13.77;9.70;;;;;;;21.24;80.65;99898.88;6246050;28;20115;-74
2021/07/26 04:40:03;;;;;;;12.07;9.60;;;;;;;21.27;80.50;99895.91;6246474;28;20077;-74
2021/07/26 04:43:04;;;;;;;12.68;8.95;;;;;;;21.32;79.71;99890.09;6246835;28;20041;-74
2021/07/26 04:46:09;;;;;;;12.97;9.13;;;;;;;21.32;80.11;99890.09;6229544;28;20053;-74
2021/07/26 04:49:09;;;;;;;13.40;9.75;;;;;;;21.34;79.18;99896.06;6246854;28;20385;-74
2021/07/26 04:52:10;;;;;;;13.17;9.33;;;;;;;21.41;79.11;99889.06;6245965;28;20041;-74
2021/07/26 04:55:11;;;;;;;12.47;10.27;;;;;;;21.38;80.37;99881.47;6245579;28;20087;-75
2021/07/26 04:58:12;;;;;;;11.88;9.10;;;;;;;21.41;80.62;99893.56;6246274;28;20065;-74
2021/07/26 05:01:13;;;;;;;14.83;10.40;;;;;;;21.42;80.84;99896.09;6245441;28;20060;-74
2021/07/26 05:04:13;;;;;;;14.73;9.30;;;;;;;21.44;80.86;99887.97;6245551;28;20046;-74
2021/07/26 05:07:14;;;;;;;14.13;9.83;;;;;;;21.46;80.24;99891.28;6245388;28;20041;-74
2021/07/26 05:10:16;;;;;;;10.27;9.07;;;;;;;21.51;82.24;99895.06;6245337;28;20045;-74
2021/07/26 05:13:16;;;;;;;11.90;9.57;;;;;;;21.62;85.72;99928.41;6246476;28;20041;-74
2021/07/26 05:16:17;;;;;;;11.40;10.20;;;;;;;21.75;85.73;99929.72;6245309;28;20476;-74
2021/07/26 05:19:18;;;;;;;17.97;9.50;;;;;;;21.88;81.90;99940.63;6245308;28;20041;-74
2021/07/26 05:22:19;;;;;;;12.33;9.57;;;;;;;21.98;81.29;99938.63;6228912;28;20438;-74
2021/07/26 05:25:20;;;;;;;14.27;9.57;;;;;;;21.89;80.85;99927.19;6228860;28;20140;-74
2021/07/26 05:28:21;;;;;;;15.87;10.10;;;;;;;22.03;82.92;99920.34;6246192;28;20048;-74
2021/07/26 05:31:21;;;;;;;13.50;10.00;;;;;;;22.09;84.45;99924.13;6244959;28;20094;-74
2021/07/26 05:34:22;;;;;;;15.27;9.80;;;;;;;22.09;84.46;99932.09;6246210;28;20158;-74
2021/07/26 05:37:23;;;;;;;11.40;9.73;;;;;;;22.10;83.73;99923.16;6244968;28;20042;-74
2021/07/26 05:40:24;;;;;;;14.13;9.50;;;;;;;22.17;83.38;99931.25;6244877;28;20500;-74
2021/07/26 05:43:24;;;;;;;15.63;9.53;;;;;;;22.19;84.64;99921.28;6246259;28;20053;-74
2021/07/26 05:46:25;;;;;;;16.23;9.67;;;;;;;22.22;83.47;99921.78;6228663;28;20065;-74
2021/07/26 05:49:26;;;;;;;13.87;10.03;;;;;;;22.27;84.48;99911.47;6220636;28;20116;-75
2021/07/26 05:52:26;;;;;;;14.50;9.53;;;;;;;22.29;83.17;99911.31;6220544;28;20382;-75
2021/07/26 05:55:27;;;;;;;21.33;10.20;;;;;;;22.33;82.81;99915.28;6221309;28;20061;-75
2021/07/26 05:58:30;;;;;;;12.93;9.33;;;;;;;22.32;79.66;99914.44;6221555;28;20046;-75
2021/07/26 06:01:49;;;;;;;12.65;9.55;;;;;;;22.34;79.41;99919.56;6221913;28;20068;-75
2021/07/26 06:04:50;;;;;;;10.70;9.15;;;;;;;22.36;79.54;99906.13;6222987;28;20120;-75
2021/07/26 06:07:50;;;;;;;16.20;9.50;;;;;;;22.42;79.39;99914.22;6233721;28;20049;-75
2021/07/26 06:10:51;;;;;;;13.67;9.33;;;;;;;22.52;78.63;99901.53;6250961;28;20443;-75
2021/07/26 06:13:53;;;;;;;20.47;9.60;;;;;;;22.56;78.31;99896.72;6249571;28;20047;-74
2021/07/26 06:16:54;;;;;;;15.32;9.18;;;;;;;22.54;77.73;99896.88;6232909;28;20083;-74
2021/07/26 06:19:55;;;;;;;18.33;8.93;;;;;;;22.64;78.51;99895.84;6249385;28;20073;-75
2021/07/26 06:22:55;;;;;;;14.27;9.10;;;;;;;22.76;77.26;99899.75;6249099;28;20033;-72
2021/07/26 06:25:56;;;;;;;18.43;9.43;;;;;;;22.93;77.07;99898.63;6232826;28;20492;-72
2021/07/26 06:28:57;;;;;;;14.07;8.70;;;;;;;23.12;74.27;99893.84;6248645;28;20038;-72
2021/07/26 06:31:57;;;;;;;13.80;8.80;;;;;;;23.23;73.64;99901.41;6248198;28;20119;-73
2021/07/26 06:34:58;;;;;;;17.63;9.13;;;;;;;23.38;73.87;99906.78;6248909;28;20048;-72
2021/07/26 06:37:59;;;;;;;17.83;8.23;;;;;;;23.58;73.11;99900.94;6223995;28;20045;-73
2021/07/26 06:41:00;;;;;;;10.87;8.20;;;;;;;23.68;70.11;99904.13;6225625;28;20053;-73
2021/07/26 06:44:00;;;;;;;10.67;8.53;;;;;;;23.76;69.43;99890.72;6231027;28;20053;-73
2021/07/26 06:47:01;;;;;;;15.68;7.97;;;;;;;23.93;69.01;99900.25;6230528;28;20044;-73
2021/07/26 06:50:04;;;;;;;10.23;8.07;;;;;;;23.97;69.41;99910.53;6223945;28;20034;-72
2021/07/26 06:53:08;;;;;;;17.25;8.50;;;;;;;23.96;69.05;99911.53;6207710;28;20096;-74
2021/07/26 06:56:09;;;;;;;13.48;7.20;;;;;;;24.05;65.53;99908.63;6238661;28;20038;-73
2021/07/26 06:59:10;;;;;;;10.48;7.40;;;;;;;24.17;64.48;99908.94;6249248;28;20058;-74
2021/07/26 07:02:12;;;;;;;18.20;8.00;;;;;;;24.26;66.20;99910.50;6249364;28;20084;-74
2021/07/26 07:05:13;;;;;;;10.23;7.50;;;;;;;24.49;66.00;99907.72;6247959;28;20075;-72
2021/07/26 07:08:13;;;;;;;8.97;7.33;;;;;;;24.64;64.04;99906.88;6247742;28;20041;-72
2021/07/26 07:11:16;;;;;;;12.77;7.10;;;;;;;24.74;63.26;99899.38;6247653;28;20044;-72
2021/07/26 07:14:17;;;;;;;18.15;7.18;;;;;;;24.92;64.38;99909.63;6247817;28;20511;-73
2021/07/26 07:17:18;;;;;;;11.93;7.53;;;;;;;25.14;61.64;99913.09;6247759;28;20079;-73
2021/07/26 07:20:19;;;;;;;13.20;7.27;;;;;;;25.22;60.80;99925.53;6247107;28;20112;-73
2021/07/26 07:23:20;;;;;;;15.35;7.00;;;;;;;25.12;61.75;99923.97;6248607;28;20072;-75
2021/07/26 07:26:22;;;;;;;10.00;7.30;;;;;;;25.10;60.47;99920.69;6246691;28;20042;-74
2021/07/26 07:29:23;;;;;;;10.90;6.88;;;;;;;25.29;60.13;99923.75;6247975;28;20515;-75
2021/07/26 07:32:23;;;;;;;19.27;7.10;;;;;;;25.38;60.46;99932.44;6231021;28;20038;-73
2021/07/26 07:35:24;;;;;;;10.13;6.97;;;;;;;25.30;60.44;99934.22;6231019;28;20111;-73
2021/07/26 07:38:27;;;;;;;12.40;6.90;;;;;;;25.23;60.40;99933.34;6248346;28;20045;-71
2021/07/26 07:41:28;;;;;;;16.30;7.40;;;;;;;25.16;62.52;99932.41;6247275;28;20099;-73
2021/07/26 07:44:32;;;;;;;18.92;8.60;;;;;;;25.26;61.83;99935.63;6247617;28;20050;-72
2021/07/26 07:47:34;;;;;;;11.52;7.18;;;;;;;25.46;62.84;99940.31;6231357;28;20052;-75
2021/07/26 07:50:34;;;;;;;11.93;7.45;;;;;;;25.71;61.91;99941.50;6228819;28;20496;-72
2021/07/26 07:53:36;;;;;;;20.58;7.97;;;;;;;26.14;59.89;99938.72;6229715;28;20041;-72
2021/07/26 07:56:37;;;;;;;;;;;;;;;26.54;57.52;99951.44;6246635;28;20103;-73
2021/07/26 07:59:39;;;;;;;10.37;6.80;;;;;;;26.90;59.56;99940.44;6248324;28;19921;-73
2021/07/26 08:02:41;;;;;;;14.57;6.97;;;;;;;27.02;53.30;99940.69;6246611;28;20045;-75
2021/07/26 08:05:42;;;;;;;14.25;6.72;;;;;;;26.81;53.14;99949.72;6248497;28;20056;-74
2021/07/26 08:08:43;;;;;;;10.10;6.70;;;;;;;26.90;53.09;99945.81;6247775;28;20080;-74
2021/07/26 08:11:43;;;;;;;12.47;6.60;;;;;;;26.80;50.75;99947.22;6246331;28;20099;-75
2021/07/26 08:14:45;;;;;;;11.70;6.97;;;;;;;26.90;53.57;99943.13;6229968;28;20283;-74
2021/07/26 08:17:47;;;;;;;15.75;7.38;;;;;;;26.88;55.40;99947.03;6246332;28;20043;-75
2021/07/26 08:20:48;;;;;;;15.63;6.97;;;;;;;26.83;55.54;99944.97;6247408;28;20044;-75
2021/07/26 08:23:49;;;;;;;12.73;7.00;;;;;;;26.71;54.22;99952.78;6247414;28;20501;-78
2021/07/26 08:26:49;;;;;;;12.20;6.60;;;;;;;26.79;53.75;99949.09;6246065;28;20041;-75
2021/07/26 08:29:50;;;;;;;12.07;6.63;;;;;;;26.79;55.80;99962.47;6245935;28;20778;-76
2021/07/26 08:32:51;;;;;;;13.00;6.63;;;;;;;26.93;56.97;99965.97;6244975;28;20049;-75
2021/07/26 08:35:52;;;;;;;13.93;7.00;;;;;;;27.14;53.46;99960.47;6246156;28;20076;-75
2021/07/26 08:38:53;;;;;;;8.85;6.20;;;;;;;27.17;49.91;99964.59;6245606;28;20054;-76
2021/07/26 08:41:56;;;;;;;14.07;7.00;;;;;;;27.29;57.07;99957.63;6213090;28;20064;-76
2021/07/26 08:44:57;;;;;;;13.23;6.22;;;;;;;27.49;52.96;99957.66;6246830;28;20117;-75
2021/07/26 08:48:04;;;;;;;14.15;6.20;;;;;;;27.52;48.28;99957.22;6240310;28;20041;-76
2021/07/26 08:51:06;;;;;;;12.57;6.43;;;;;;;27.53;50.90;99956.19;6247880;28;20044;-76
2021/07/26 08:54:10;;;;;;;15.15;6.15;;;;;;;27.76;48.50;99951.41;6246645;28;20042;-76
2021/07/26 08:57:11;;;;;;;18.95;6.43;;;;;;;27.84;49.45;99960.09;6246603;28;20080;-75
2021/07/26 09:00:14;;;;;;;10.30;5.78;;;;;;;27.83;51.10;99963.78;6212576;28;20061;-75
2021/07/26 09:03:15;;;;;;;10.65;5.93;;;;;;;28.09;45.71;99957.56;6246490;28;20045;-76
2021/07/26 09:06:15;;;;;;;21.77;6.07;;;;;;;28.25;49.06;99964.34;6228946;28;20484;-76
2021/07/26 09:09:16;;;;;;;8.57;5.55;;;;;;;28.22;45.64;99958.56;6228753;28;20037;-76
2021/07/26 09:12:36;;;;;;;15.57;5.85;;;;;;;28.28;46.85;99960.41;6245225;28;20477;-76
2021/07/26 09:15:40;;;;;;;11.98;6.28;;;;;;;28.25;45.55;99960.81;6246519;28;20424;-76
2021/07/26 09:18:42;;;;;;;11.05;5.50;;;;;;;28.59;45.83;99956.19;6246220;28;20045;-76
2021/07/26 09:21:55;;;;;;;11.50;5.88;;;;;;;28.62;45.65;99947.69;6212840;28;20084;-77
2021/07/26 09:25:21;;;;;;;12.23;5.85;;;;;;;28.50;42.85;99955.63;6245005;28;20038;-76
2021/07/26 09:28:23;;;;;;;7.35;4.70;;;;;;;28.43;46.53;99947.53;6245926;28;20052;-76
2021/07/26 09:31:23;;;;;;;;;;;;;;;28.50;43.85;99955.63;6245423;28;20042;-76
2021/07/26 09:34:24;;;;;;;9.77;5.40;;;;;;;28.54;43.82;99940.72;6246566;28;20475;-76
2021/07/26 09:37:27;;;;;;;11.27;5.38;;;;;;;28.69;46.02;99951.19;6229181;28;20095;-76
2021/07/26 09:40:33;;;;;;;10.55;5.63;;;;;;;28.94;47.50;99945.84;6228316;28;20045;-76
2021/07/26 09:43:34;;;;;;;9.77;5.38;;;;;;;29.22;45.90;99936.59;6247271;28;20041;-77
2021/07/26 09:46:39;;;;;;;10.98;5.82;;;;;;;29.44;46.37;99945.91;6251048;28;20068;-77
2021/07/26 09:49:39;;;;;;;7.70;5.28;;;;;;;29.11;46.03;99948.88;6249623;28;20033;-76
2021/07/26 09:52:40;;;;;;;6.70;5.30;;;;;;;29.22;44.37;99940.13;6249895;28;20046;-77
2021/07/26 09:55:43;;;;;;;11.63;5.45;;;;;;;29.33;43.33;99942.06;6249721;28;20041;-77
2021/07/26 09:58:43;;;;;;;18.60;5.57;;;;;;;29.50;44.21;99938.84;6250686;28;20119;-77
2021/07/26 10:01:45;;;;;;;12.57;5.35;;;;;;;29.58;42.14;99935.88;6233526;28;20396;-77
2021/07/26 10:04:47;;;;;;;17.08;5.35;;;;;;;29.73;43.15;99940.91;6249716;28;20480;-78
2021/07/26 10:07:50;;;;;;;20.48;5.63;;;;;;;29.99;45.22;99934.44;6250977;28;20080;-77
2021/07/26 10:10:51;;;;;;;12.02;5.43;;;;;;;30.16;39.51;99945.44;6249471;28;20046;-76
2021/07/26 10:13:52;;;;;;;14.73;5.28;;;;;;;30.28;40.72;99942.81;6249198;28;20098;-74
2021/07/26 10:16:55;;;;;;;11.45;5.22;;;;;;;30.20;39.98;99946.63;6250279;28;20516;-77
2021/07/26 10:19:56;;;;;;;8.05;4.70;;;;;;;29.73;40.76;99936.38;6232806;28;20076;-74
2021/07/26 10:23:05;;;;;;;11.98;5.30;;;;;;;29.50;42.55;99941.53;6232521;28;20045;-75
2021/07/26 10:26:09;;;;;;;12.40;4.93;;;;;;;29.32;41.64;99951.19;6248970;28;20119;-75
2021/07/26 10:29:10;;;;;;;9.65;5.45;;;;;;;29.16;40.36;99948.19;6249700;28;20045;-74
2021/07/26 10:32:29;;;;;;;10.77;4.68;;;;;;;29.21;40.57;99951.06;6249899;28;20041;-75
2021/07/26 10:35:34;;;;;;;10.00;5.18;;;;;;;29.01;40.86;99962.72;6248609;28;20037;-74
2021/07/26 10:38:43;;;;;;;9.68;4.80;;;;;;;28.98;42.28;99962.38;6231367;28;20142;-76
2021/07/26 10:41:47;;;;;;;13.10;5.78;;;;;;;29.24;41.11;99964.06;6248669;28;20412;-75
2021/07/26 10:44:48;;;;;;;7.93;5.20;;;;;;;29.27;41.80;99964.44;6248866;28;20447;-78
2021/07/26 10:48:24;;;;;;;10.65;5.88;;;;;;;29.47;43.56;99964.28;6233110;28;20049;-78
2021/07/26 10:51:38;;;;;;;8.60;4.95;;;;;;;29.54;42.92;99964.22;6253001;28;20041;-76
2021/07/26 10:54:38;;;;;;;11.60;5.00;;;;;;;29.67;41.37;99961.44;6248716;28;20065;-74
2021/07/26 10:57:43;;;;;;;11.30;5.22;;;;;;;29.48;42.25;99960.56;6248854;28;20492;-75
2021/07/26 11:00:44;;;;;;;13.55;5.65;;;;;;;29.38;43.82;99954.84;6248194;28;20122;-77
2021/07/26 11:03:45;;;;;;;12.38;5.32;;;;;;;29.43;43.35;99955.03;6248585;28;20488;-73
2021/07/26 11:06:46;;;;;;;11.48;4.82;;;;;;;29.46;43.64;99951.88;6244733;28;20092;-73
2021/07/26 11:09:47;;;;;;;8.18;5.38;;;;;;;29.50;42.84;99941.53;6224507;28;20038;-74
2021/07/26 11:12:53;;;;;;;17.88;5.85;;;;;;;29.63;43.84;99940.56;6223557;28;20403;-74
2021/07/26 11:15:55;;;;;;;15.95;5.65;;;;;;;30.19;42.85;99933.41;6224640;28;20558;-73
2021/07/26 11:18:55;;;;;;;15.43;5.50;;;;;;;30.42;41.80;99936.25;6224564;28;20481;-74
2021/07/26 11:21:57;;;;;;;17.63;5.25;;;;;;;30.59;41.68;99933.75;6237629;28;20042;-74
2021/07/26 11:25:08;;;;;;;11.18;4.97;;;;;;;30.47;40.96;99940.94;6249096;28;20467;-74
2021/07/26 11:28:09;;;;;;;12.18;5.07;;;;;;;30.49;38.60;99936.16;6247497;28;20065;-75
2021/07/26 11:31:10;;;;;;;;;;;;;;;30.43;40.22;99943.25;6249104;28;20045;-74
2021/07/26 11:34:13;;;;;;;12.13;4.90;;;;;;;30.51;39.86;99929.47;6247470;28;19925;-74
2021/07/26 11:37:14;;;;;;;15.05;5.50;;;;;;;30.46;41.15;99926.66;6227654;28;20079;-74
2021/07/26 11:40:16;;;;;;;14.98;5.15;;;;;;;30.36;40.47;99928.25;6248392;28;20049;-75
2021/07/26 11:43:32;;;;;;;11.02;5.50;;;;;;;30.28;40.42;99923.97;6214624;28;20117;-75
2021/07/26 11:46:33;;;;;;;15.73;5.47;;;;;;;30.39;40.68;99919.72;6223678;28;20042;-76
2021/07/26 11:49:34;;;;;;;9.23;5.20;;;;;;;30.41;40.96;99914.94;6222342;28;20083;-75
2021/07/26 11:52:35;;;;;;;10.45;5.25;;;;;;;30.39;42.54;99908.94;6222411;28;20448;-76
2021/07/26 11:55:37;;;;;;;;;;;;;;;30.46;40.32;99915.09;6222852;28;20045;-76
2021/07/26 11:58:38;;;;;;;16.73;4.95;;;;;;;30.47;38.85;99922.09;6206052;28;19921;-75
2021/07/26 12:01:43;;;;;;;11.63;4.90;;;;;;;30.70;36.98;99921.34;6222138;28;20044;-75
2021/07/26 12:04:43;;;;;;;14.98;4.95;;;;;;;30.85;39.54;99915.56;6223440;28;20049;-75
2021/07/26 12:07:45;;;;;;;10.30;5.43;;;;;;;31.30;37.30;99918.59;6221951;28;20038;-76
2021/07/26 12:10:47;;;;;;;16.92;5.63;;;;;;;31.50;36.83;99915.59;6243002;28;20041;-78
2021/07/26 12:13:50;;;;;;;15.15;5.10;;;;;;;31.77;35.68;99908.88;6246730;28;20128;-76
2021/07/26 12:17:13;;;;;;;19.98;5.90;;;;;;;31.65;36.58;99914.28;6246631;28;20056;-76
2021/07/26 12:20:20;;;;;;;17.73;5.50;;;;;;;31.84;37.62;99913.09;6246237;28;20069;-76
2021/07/26 12:23:23;;;;;;;17.38;5.70;;;;;;;31.91;36.19;99908.38;6246319;28;20088;-76
2021/07/26 12:26:24;;;;;;;14.27;5.40;;;;;;;32.55;34.59;99904.84;6246116;28;20041;-76
2021/07/26 12:29:26;;;;;;;;;;;;;;;33.16;33.19;99909.69;6247844;28;20083;-76
2021/07/26 12:32:27;;;;;;;13.52;5.90;;;;;;;34.02;32.21;99899.28;6245908;28;19925;-76
2021/07/26 12:35:28;;;;;;;14.95;5.70;;;;;;;33.51;32.70;99904.81;6246095;28;20045;-76
2021/07/26 12:38:29;;;;;;;8.60;5.20;;;;;;;34.35;31.20;99889.41;6245966;28;20378;-76
2021/07/26 12:41:32;;;;;;;18.13;6.35;;;;;;;35.61;31.33;99892.63;6245722;28;20048;-76
2021/07/26 12:44:35;;;;;;;15.82;6.40;;;;;;;35.80;27.98;99892.19;6246059;28;20041;-76
2021/07/26 12:47:43;;;;;;;26.42;6.75;;;;;;;36.64;26.70;99893.03;6246667;28;20041;-77
2021/07/26 12:50:46;;;;;;;19.30;7.03;;;;;;;37.45;25.92;99886.72;6246113;28;20484;-76
2021/07/26 12:53:51;;;;;;;15.07;6.43;;;;;;;37.09;26.29;99889.50;6246985;28;20043;-77
2021/07/26 12:56:51;;;;;;;13.25;6.47;;;;;;;37.28;24.98;99886.22;6245713;28;20404;-79
2021/07/26 12:59:52;;;;;;;14.32;6.50;;;;;;;37.92;26.17;99895.56;6245507;28;20519;-78
2021/07/26 13:02:54;;;;;;;18.27;7.18;;;;;;;37.82;26.66;99882.00;6245758;28;20099;-78
2021/07/26 13:05:55;;;;;;;19.67;7.05;;;;;;;36.51;29.16;99881.56;6245670;28;20038;-77
2021/07/26 13:08:56;;;;;;;23.33;7.70;;;;;;;37.26;27.76;99869.38;6212660;28;20077;-77
2021/07/26 13:11:57;;;;;;;10.93;7.13;;;;;;;36.77;27.54;99864.50;6245048;28;20041;-77
2021/07/26 13:14:57;;;;;;;21.35;7.03;;;;;;;37.40;26.46;99869.63;6245412;28;20068;-76
2021/07/26 13:17:58;;;;;;;19.20;7.43;;;;;;;35.88;29.18;99875.41;6228419;28;20175;-76
2021/07/26 13:20:59;;;;;;;18.02;5.95;;;;;;;36.02;27.77;99867.59;6228821;28;20091;-77
2021/07/26 13:24:00;;;;;;;15.02;7.05;;;;;;;35.01;29.56;99870.25;6246337;28;20045;-76
2021/07/26 13:27:01;;;;;;;13.27;6.22;;;;;;;34.52;30.15;99871.16;6228830;28;20041;-76
2021/07/26 13:30:03;;;;;;;19.02;5.88;;;;;;;34.45;31.34;99864.28;6244994;28;20511;-76
2021/07/26 13:33:04;;;;;;;29.00;6.57;;;;;;;34.12;30.47;99861.50;6245995;28;20045;-76
2021/07/26 13:36:06;;;;;;;22.25;6.15;;;;;;;33.80;31.39;99857.88;6246262;28;20049;-76
2021/07/26 13:39:07;;;;;;;13.93;5.63;;;;;;;33.86;30.68;99857.69;6228682;28;20041;-76
2021/07/26 13:42:08;;;;;;;20.80;5.35;;;;;;;33.92;31.85;99864.78;6244855;28;20099;-76
2021/07/26 13:45:10;;;;;;;15.25;5.38;;;;;;;33.88;31.64;99865.56;6244844;28;20069;-76
2021/07/26 13:48:11;;;;;;;12.57;5.15;;;;;;;33.81;31.18;99863.06;6244863;28;20038;-77
2021/07/26 13:51:11;;;;;;;13.60;5.15;;;;;;;33.75;32.09;99863.22;6228402;28;20064;-76
2021/07/26 13:54:12;;;;;;;14.65;5.28;;;;;;;33.72;31.77;99867.25;6212362;28;20385;-77
2021/07/26 13:57:13;;;;;;;20.00;5.07;;;;;;;33.58;31.16;99868.66;6212083;28;20096;-76
2021/07/26 14:00:17;;;;;;;16.95;4.93;;;;;;;33.14;32.79;99861.28;6244849;28;20107;-76
2021/07/26 14:03:18;;;;;;;25.65;5.60;;;;;;;33.04;33.32;99855.69;6212754;28;20207;-78
2021/07/26 14:06:19;;;;;;;24.33;5.20;;;;;;;33.35;32.89;99856.97;6212477;28;20045;-78
2021/07/26 14:09:19;;;;;;;23.15;5.32;;;;;;;33.20;33.30;99856.78;6244945;28;20052;-77